Terminal Aerodrome Forecast
Issued by NWS

Current Version | Previous Version | Text Only | Print | Product List | Glossary On
Versions: 1 2 3 4 5 6 7 8 9 10 11 12 13 14 15 16 17 18 19 20 21 22 23 24 25 26 27 28
000
FTUS42 KCAE 290800 AAA
TAFCUB
TAF AMD
KCUB 290838Z 2909/3006 VRB03KT 5SM BR SCT008 BKN012 OVC030
      TEMPO 2909/2910 2SM BR BKN008 OVC012
     FM291000 VRB03KT 4SM -RA BR BKN007 OVC015
     FM292000 VRB04KT 6SM BR SCT008 OVC015
     FM300200 VRB03KT 4SM BR SCT007 OVC015=

USA.gov is the U.S. government's official web portal to all federal, state and local government web resources and services.